Time;durP1;ratioP1;P1;durP2;ratioP2;P2;SDS_P1;SDS_P2;PMS_P1;PMS_P2;Temp;Humidity;BMP_temperature;BMP_pressure;BME280_temperature;BME280_humidity;BME280_pressure;Samples;Min_cycle;Max_cycle;Signal;HPM_P1;HPM_P2
2022/08/11 00:00:38;;;;;;;0.20;0.20;;;;;;;;;;5050261;28;20381;-73
2022/08/11 00:03:08;;;;;;;0.20;0.20;;;;;;;;;;5049545;28;20489;-73
2022/08/11 00:05:42;;;;;;;0.35;0.35;;;;;;;;;;5041991;28;20033;-74
2022/08/11 00:08:08;;;;;;;0.20;0.20;;;;;;;;;;5048956;28;20018;-75
2022/08/11 00:10:34;;;;;;;0.20;0.20;;;;;;;;;;5050245;28;20040;-74
2022/08/11 00:13:01;;;;;;;0.20;0.20;;;;;;;;;;5050271;28;20476;-75
2022/08/11 00:15:35;;;;;;;0.20;0.20;;;;;;;;;;5050348;28;20550;-74
2022/08/11 00:18:01;;;;;;;0.20;0.20;;;;;;;;;;5049173;28;20536;-77
2022/08/11 00:20:31;;;;;;;0.32;0.32;;;;;;;;;;5051564;28;20048;-73
2022/08/11 00:23:07;;;;;;;0.25;0.25;;;;;;;;;;5052325;28;20025;-73
2022/08/11 00:25:38;;;;;;;0.20;0.20;;;;;;;;;;5051698;28;20114;-75
2022/08/11 00:28:03;;;;;;;0.20;0.20;;;;;;;;;;5055757;28;20378;-73
2022/08/11 00:30:37;;;;;;;0.47;0.47;;;;;;;;;;5055573;28;20113;-74
2022/08/11 00:33:03;;;;;;;0.20;0.20;;;;;;;;;;5037216;28;20025;-73
2022/08/11 00:35:30;;;;;;;0.20;0.20;;;;;;;;;;5055911;28;20392;-75
2022/08/11 00:37:57;;;;;;;0.20;0.20;;;;;;;;;;5055638;28;20045;-74
2022/08/11 00:40:27;;;;;;;0.20;0.20;;;;;;;;;;5055762;28;20025;-74
2022/08/11 00:43:00;;;;;;;0.40;0.40;;;;;;;;;;5054237;28;20503;-74
2022/08/11 00:45:27;;;;;;;0.20;0.20;;;;;;;;;;5054456;28;20040;-75
2022/08/11 00:48:22;;;;;;;0.20;0.20;;;;;;;;;;5056037;28;20029;-74
2022/08/11 00:50:55;;;;;;;0.77;0.77;;;;;;;;;;5038202;28;20649;-74
2022/08/11 00:53:26;;;;;;;0.28;0.28;;;;;;;;;;5037831;28;20037;-74
2022/08/11 00:56:01;;;;;;;5.43;1.58;;;;;;;;;;5037783;28;20033;-74
2022/08/11 00:58:58;;;;;;;1.02;1.00;;;;;;;;;;5055465;28;20029;-74
2022/08/11 01:01:35;;;;;;;0.30;0.30;;;;;;;;;;5055598;28;20017;-74
2022/08/11 01:04:04;;;;;;;1.00;1.00;;;;;;;;;;5055136;28;20037;-74
2022/08/11 01:06:48;;;;;;;0.22;0.22;;;;;;;;;;5055314;28;20167;-74
2022/08/11 01:09:27;;;;;;;0.20;0.20;;;;;;;;;;5055366;28;20075;-74
2022/08/11 01:12:01;;;;;;;0.13;0.13;;;;;;;;;;5037464;28;20029;-74
2022/08/11 01:14:45;;;;;;;0.20;0.20;;;;;;;;;;5053446;28;20373;-74
2022/08/11 01:17:29;;;;;;;0.20;0.20;;;;;;;;;;5053748;28;20473;-72
2022/08/11 01:20:08;;;;;;;0.52;0.52;;;;;;;;;;5054205;28;20037;-74
2022/08/11 01:22:51;;;;;;;0.30;0.30;;;;;;;;;;5053754;28;20354;-74
2022/08/11 01:25:35;;;;;;;0.40;0.40;;;;;;;;;;5053912;28;20064;-74
2022/08/11 01:28:19;;;;;;;0.20;0.20;;;;;;;;;;5053716;28;20440;-75
2022/08/11 01:30:45;;;;;;;1.25;1.20;;;;;;;;;;5054524;28;20048;-75
2022/08/11 01:33:13;;;;;;;0.20;0.20;;;;;;;;;;5054649;28;20472;-75
2022/08/11 01:35:42;;;;;;;0.22;0.22;;;;;;;;;;5054750;28;20546;-75
2022/08/11 01:38:07;;;;;;;0.20;0.20;;;;;;;;;;5053964;28;20041;-75
2022/08/11 01:41:00;;;;;;;0.45;0.45;;;;;;;;;;5054548;28;20107;-75
2022/08/11 01:46:29;;;;;;;0.20;0.20;;;;;;;;;;5051162;28;20049;-77
2022/08/11 01:49:02;;;;;;;0.20;0.20;;;;;;;;;;5054494;28;20044;-76
2022/08/11 01:51:44;;;;;;;0.20;0.20;;;;;;;;;;5054580;28;20025;-75
2022/08/11 01:54:23;;;;;;;0.20;0.20;;;;;;;;;;5054451;28;20071;-75
2022/08/11 01:56:51;;;;;;;0.20;0.20;;;;;;;;;;5054748;28;20502;-75
2022/08/11 01:59:47;;;;;;;0.70;0.70;;;;;;;;;;5052969;28;20186;-75
2022/08/11 02:02:16;;;;;;;0.30;0.30;;;;;;;;;;5044837;28;20051;-75
2022/08/11 02:04:47;;;;;;;0.30;0.30;;;;;;;;;;5052846;28;20025;-75
2022/08/11 02:07:21;;;;;;;0.20;0.20;;;;;;;;;;5054258;28;20396;-75
2022/08/11 02:09:59;;;;;;;0.35;0.35;;;;;;;;;;5054070;28;20380;-75
2022/08/11 02:12:25;;;;;;;0.20;0.20;;;;;;;;;;5054132;28;20358;-75
2022/08/11 02:15:06;;;;;;;0.20;0.20;;;;;;;;;;5053811;28;20032;-77
2022/08/11 02:17:51;;;;;;;0.25;0.25;;;;;;;;;;5036219;28;20036;-75
2022/08/11 02:25:54;;;;;;;0.22;0.22;;;;;;;;;;5053654;28;20495;-75
2022/08/11 02:28:28;;;;;;;0.20;0.20;;;;;;;;;;5054066;28;20025;-75
2022/08/11 02:33:21;;;;;;;0.38;0.38;;;;;;;;;;5053878;28;20029;-75
2022/08/11 02:33:40;;;;;;;0.35;0.25;;;;;;;;;;5053970;28;20040;-76
2022/08/11 02:36:14;;;;;;;0.28;0.28;;;;;;;;;;5053456;28;20037;-75
2022/08/11 02:38:44;;;;;;;0.20;0.20;;;;;;;;;;5052060;28;20053;-76
2022/08/11 02:44:20;;;;;;;0.93;0.88;;;;;;;;;;5052453;28;20496;-75
2022/08/11 02:46:45;;;;;;;0.50;0.50;;;;;;;;;;5035906;28;20473;-74
2022/08/11 02:52:03;;;;;;;0.20;0.20;;;;;;;;;;5053539;28;20091;-74
2022/08/11 02:54:52;;;;;;;0.30;0.30;;;;;;;;;;5053408;28;20033;-73
2022/08/11 02:57:28;;;;;;;0.30;0.30;;;;;;;;;;5053221;28;20104;-73
2022/08/11 03:00:04;;;;;;;0.25;0.25;;;;;;;;;;5053472;28;20021;-74
2022/08/11 03:02:40;;;;;;;0.20;0.20;;;;;;;;;;5048988;28;20458;-72
2022/08/11 03:05:09;;;;;;;0.22;0.22;;;;;;;;;;5031439;28;20887;-81
2022/08/11 03:07:44;;;;;;;0.28;0.28;;;;;;;;;;5036115;28;20029;-74
2022/08/11 03:10:24;;;;;;;0.43;0.43;;;;;;;;;;5029461;28;20507;-75
2022/08/11 03:18:47;;;;;;;0.40;0.40;;;;;;;;;;5029200;28;20108;-79
2022/08/11 03:21:24;;;;;;;0.45;0.45;;;;;;;;;;5027858;28;20029;-74
2022/08/11 03:24:07;;;;;;;2.38;2.17;;;;;;;;;;5032650;28;20025;-78
2022/08/11 03:26:38;;;;;;;0.40;0.40;;;;;;;;;;5031663;28;20243;-74
2022/08/11 03:29:04;;;;;;;0.20;0.20;;;;;;;;;;5049155;28;20033;-74
2022/08/11 03:31:33;;;;;;;0.20;0.20;;;;;;;;;;5049179;28;20095;-74
2022/08/11 03:34:04;;;;;;;;;;;;;;;;;;5049357;28;20481;-73
2022/08/11 03:36:48;;;;;;;0.20;0.20;;;;;;;;;;5048728;28;19909;-74
2022/08/11 03:39:34;;;;;;;0.20;0.20;;;;;;;;;;5049230;28;20025;-74
2022/08/11 03:42:15;;;;;;;0.30;0.30;;;;;;;;;;5035109;28;20484;-73
2022/08/11 03:44:59;;;;;;;0.20;0.20;;;;;;;;;;5049091;28;20021;-74
2022/08/11 03:47:36;;;;;;;0.10;0.10;;;;;;;;;;5031086;28;20056;-73
2022/08/11 03:50:25;;;;;;;0.20;0.20;;;;;;;;;;5048927;28;20017;-73
2022/08/11 03:52:57;;;;;;;0.20;0.20;;;;;;;;;;5038266;28;20552;-74
2022/08/11 03:55:41;;;;;;;0.70;0.60;;;;;;;;;;5048526;28;20025;-72
2022/08/11 03:58:28;;;;;;;0.30;0.30;;;;;;;;;;5052873;28;20033;-74
2022/08/11 04:01:14;;;;;;;0.20;0.20;;;;;;;;;;5039625;28;20029;-73
2022/08/11 04:03:49;;;;;;;0.30;0.30;;;;;;;;;;5063535;28;20028;-76
2022/08/11 04:06:33;;;;;;;0.20;0.20;;;;;;;;;;5066286;28;20041;-75
2022/08/11 04:09:17;;;;;;;0.80;0.80;;;;;;;;;;5058890;28;20995;-73
2022/08/11 04:11:56;;;;;;;0.38;0.38;;;;;;;;;;5051362;28;20033;-74
2022/08/11 04:17:30;;;;;;;1.08;0.85;;;;;;;;;;5052590;28;20492;-75
2022/08/11 04:20:02;;;;;;;0.38;0.38;;;;;;;;;;5050969;28;20484;-75
2022/08/11 04:22:47;;;;;;;0.20;0.20;;;;;;;;;;5050597;28;20532;-73
2022/08/11 04:25:35;;;;;;;0.43;0.43;;;;;;;;;;5051635;28;20245;-76
2022/08/11 04:28:19;;;;;;;0.50;0.50;;;;;;;;;;5041687;28;20049;-75
2022/08/11 04:31:03;;;;;;;0.20;0.20;;;;;;;;;;5034383;28;20392;-75
2022/08/11 04:33:47;;;;;;;0.10;0.10;;;;;;;;;;5049821;28;20036;-73
2022/08/11 04:36:13;;;;;;;0.40;0.40;;;;;;;;;;5055978;28;20079;-75
2022/08/11 04:39:03;;;;;;;0.20;0.20;;;;;;;;;;5050448;28;20053;-73
2022/08/11 04:41:30;;;;;;;0.20;0.20;;;;;;;;;;5018274;28;20496;-75
2022/08/11 04:44:14;;;;;;;0.25;0.25;;;;;;;;;;5033960;28;20032;-77
2022/08/11 04:46:40;;;;;;;0.20;0.20;;;;;;;;;;5050827;28;20131;-73
2022/08/11 05:07:15;;;;;;;1.48;1.38;;;;;;;;;;4958545;28;20046;-75
2022/08/11 05:09:51;;;;;;;0.20;0.20;;;;;;;;;;5042437;28;20098;-75
2022/08/11 05:12:28;;;;;;;0.20;0.20;;;;;;;;;;5048234;28;20163;-75
2022/08/11 05:37:08;;;;;;;0.20;0.20;;;;;;;;;;5050398;28;20041;-76
2022/08/11 05:56:53;;;;;;;0.20;0.20;;;;;;;;;;5027086;28;20040;-75
2022/08/11 05:59:21;;;;;;;0.20;0.20;;;;;;;;;;5027645;28;20036;-74
2022/08/11 06:01:48;;;;;;;0.20;0.20;;;;;;;;;;5029005;28;20753;-73
2022/08/11 06:04:16;;;;;;;0.15;0.15;;;;;;;;;;5030098;28;20025;-72
2022/08/11 06:06:49;;;;;;;0.20;0.20;;;;;;;;;;5028796;28;20700;-73
2022/08/11 06:09:35;;;;;;;0.22;0.22;;;;;;;;;;5028849;28;21037;-73
2022/08/11 06:12:04;;;;;;;0.20;0.20;;;;;;;;;;5028201;28;20033;-73
2022/08/11 06:14:30;;;;;;;0.30;0.30;;;;;;;;;;5028687;28;20468;-74
2022/08/11 06:16:58;;;;;;;0.20;0.20;;;;;;;;;;5028550;28;20036;-74
2022/08/11 06:19:30;;;;;;;0.30;0.30;;;;;;;;;;5012476;28;20057;-75
2022/08/11 06:21:55;;;;;;;0.50;0.50;;;;;;;;;;5028709;28;20048;-73
2022/08/11 06:24:21;;;;;;;0.28;0.28;;;;;;;;;;5029845;28;20401;-73
2022/08/11 06:26:50;;;;;;;0.30;0.30;;;;;;;;;;5028368;28;20045;-75
2022/08/11 06:29:17;;;;;;;0.20;0.20;;;;;;;;;;5029867;28;20351;-76
2022/08/11 06:31:50;;;;;;;0.20;0.20;;;;;;;;;;5028593;28;20025;-74
2022/08/11 06:34:22;;;;;;;0.30;0.30;;;;;;;;;;5028704;28;20126;-75
2022/08/11 06:36:54;;;;;;;0.32;0.32;;;;;;;;;;5012348;28;20056;-74
2022/08/11 06:39:22;;;;;;;0.30;0.30;;;;;;;;;;5011964;28;20055;-74
2022/08/11 06:41:52;;;;;;;0.23;0.23;;;;;;;;;;5030785;28;20029;-74
2022/08/11 06:44:18;;;;;;;0.20;0.20;;;;;;;;;;5020909;28;20039;-75
2022/08/11 06:46:49;;;;;;;0.30;0.30;;;;;;;;;;5040620;28;20067;-79
2022/08/11 06:52:05;;;;;;;0.30;0.30;;;;;;;;;;5043491;28;20025;-76
2022/08/11 06:54:32;;;;;;;0.40;0.40;;;;;;;;;;5049607;28;20571;-79
2022/08/11 07:02:33;;;;;;;0.20;0.20;;;;;;;;;;5054918;28;20477;-79
2022/08/11 07:05:00;;;;;;;0.30;0.30;;;;;;;;;;5045920;28;20039;-78
2022/08/11 07:16:06;;;;;;;0.30;0.30;;;;;;;;;;5048300;28;20080;-79
2022/08/11 07:29:34;;;;;;;0.40;0.40;;;;;;;;;;5045768;28;20032;-80
2022/08/11 07:32:02;;;;;;;1.92;0.85;;;;;;;;;;5047256;28;20021;-80
2022/08/11 07:34:33;;;;;;;0.40;0.40;;;;;;;;;;5049033;28;20048;-77
2022/08/11 07:37:02;;;;;;;0.88;0.88;;;;;;;;;;5048516;28;20404;-79
2022/08/11 07:39:30;;;;;;;0.30;0.30;;;;;;;;;;5046394;28;20029;-78
2022/08/11 07:41:57;;;;;;;0.60;0.60;;;;;;;;;;5052323;28;20383;-75
2022/08/11 07:44:24;;;;;;;0.40;0.40;;;;;;;;;;5053525;28;20029;-80
2022/08/11 07:52:29;;;;;;;1.38;0.88;;;;;;;;;;5053503;28;20044;-80
2022/08/11 07:54:59;;;;;;;1.08;0.98;;;;;;;;;;5053213;28;20021;-76
2022/08/11 08:19:21;;;;;;;0.40;0.40;;;;;;;;;;5074461;28;20013;-74
2022/08/11 08:21:47;;;;;;;0.60;0.60;;;;;;;;;;5073033;28;20045;-80
2022/08/11 08:24:13;;;;;;;0.88;0.75;;;;;;;;;;5057069;28;20094;-80
2022/08/11 08:26:57;;;;;;;0.30;0.30;;;;;;;;;;5055973;28;20045;-81
2022/08/11 08:32:10;;;;;;;1.10;0.93;;;;;;;;;;5052068;28;20025;-81
2022/08/11 08:34:39;;;;;;;0.32;0.32;;;;;;;;;;5052043;28;20499;-79
2022/08/11 08:37:06;;;;;;;0.60;0.57;;;;;;;;;;5053069;28;20052;-81
2022/08/11 08:39:33;;;;;;;1.35;0.85;;;;;;;;;;5054388;28;20035;-81
2022/08/11 08:42:01;;;;;;;0.85;0.82;;;;;;;;;;5039946;28;20057;-79
2022/08/11 08:44:27;;;;;;;2.77;1.23;;;;;;;;;;5051887;28;20033;-80
2022/08/11 08:46:57;;;;;;;0.45;0.45;;;;;;;;;;5049572;28;20305;-81
2022/08/11 08:49:30;;;;;;;0.70;0.70;;;;;;;;;;5050289;28;20380;-81
2022/08/11 08:51:57;;;;;;;0.40;0.40;;;;;;;;;;5051167;28;20025;-80
2022/08/11 08:54:26;;;;;;;1.23;1.08;;;;;;;;;;5050828;28;20017;-79
2022/08/11 08:56:54;;;;;;;1.75;1.30;;;;;;;;;;5054118;28;20035;-79
2022/08/11 08:59:20;;;;;;;0.40;0.40;;;;;;;;;;5049592;28;20108;-80
2022/08/11 09:01:52;;;;;;;1.55;1.25;;;;;;;;;;5051156;28;20029;-80
2022/08/11 09:04:19;;;;;;;2.58;1.27;;;;;;;;;;5051825;28;20059;-81
2022/08/11 09:06:44;;;;;;;1.45;1.25;;;;;;;;;;5050878;28;20029;-80
2022/08/11 09:09:13;;;;;;;0.93;0.88;;;;;;;;;;5050650;28;20594;-79
2022/08/11 09:11:49;;;;;;;0.70;0.70;;;;;;;;;;5051128;28;20033;-81
2022/08/11 09:14:59;;;;;;;0.68;0.63;;;;;;;;;;5049388;28;20024;-78
2022/08/11 09:17:11;;;;;;;2.10;1.27;;;;;;;;;;5048511;28;20067;-78
2022/08/11 09:19:36;;;;;;;0.93;0.82;;;;;;;;;;5048451;28;20033;-79
2022/08/11 09:27:31;;;;;;;0.98;0.88;;;;;;;;;;5047773;28;20663;-78
2022/08/11 09:29:57;;;;;;;1.38;1.27;;;;;;;;;;5048180;28;20041;-78
2022/08/11 09:32:23;;;;;;;1.75;1.48;;;;;;;;;;5048176;28;20029;-75
2022/08/11 09:34:50;;;;;;;2.25;1.48;;;;;;;;;;5060296;28;20036;-80
2022/08/11 09:45:31;;;;;;;1.27;1.25;;;;;;;;;;5037140;28;20044;-78
2022/08/11 09:47:57;;;;;;;0.40;0.40;;;;;;;;;;5053701;28;20384;-78
2022/08/11 09:50:22;;;;;;;6.25;2.25;;;;;;;;;;5059664;28;20100;-77
2022/08/11 09:52:49;;;;;;;0.68;0.68;;;;;;;;;;5048284;28;20126;-74
2022/08/11 09:55:15;;;;;;;0.40;0.40;;;;;;;;;;5048047;28;20094;-74
2022/08/11 10:00:47;;;;;;;0.40;0.40;;;;;;;;;;5005328;28;20113;-78
2022/08/11 10:03:12;;;;;;;1.13;1.02;;;;;;;;;;5039798;28;20579;-78
2022/08/11 10:08:26;;;;;;;3.03;1.33;;;;;;;;;;5053322;28;20119;-78
2022/08/11 10:10:53;;;;;;;0.85;0.85;;;;;;;;;;5060321;28;20384;-79
2022/08/11 10:13:24;;;;;;;2.70;1.75;;;;;;;;;;5047407;28;20174;-78
2022/08/11 10:15:53;;;;;;;1.38;1.13;;;;;;;;;;5046985;28;20037;-80
2022/08/11 10:18:41;;;;;;;2.50;1.60;;;;;;;;;;5047800;28;20022;-79
2022/08/11 10:21:27;;;;;;;0.80;0.73;;;;;;;;;;5051063;28;20163;-76
2022/08/11 10:34:58;;;;;;;1.98;0.90;;;;;;;;;;5057160;28;20082;-76
2022/08/11 10:37:24;;;;;;;0.50;0.50;;;;;;;;;;5057191;28;20068;-74
2022/08/11 10:39:50;;;;;;;1.08;1.02;;;;;;;;;;5047691;28;20072;-76
2022/08/11 10:45:02;;;;;;;1.27;1.17;;;;;;;;;;5046834;28;20483;-77
2022/08/11 10:47:34;;;;;;;1.47;1.00;;;;;;;;;;5047240;28;20045;-76
2022/08/11 10:58:49;;;;;;;3.63;2.05;;;;;;;;;;5047469;28;20037;-75
2022/08/11 11:01:36;;;;;;;1.05;0.90;;;;;;;;;;5043812;28;20567;-77
2022/08/11 11:04:09;;;;;;;0.60;0.60;;;;;;;;;;5032276;28;20048;-77
2022/08/11 11:06:53;;;;;;;2.75;1.63;;;;;;;;;;5028653;28;20090;-76
2022/08/11 11:09:31;;;;;;;1.13;1.02;;;;;;;;;;5037811;28;20459;-76
2022/08/11 11:18:00;;;;;;;0.93;0.75;;;;;;;;;;5046581;28;20025;-76
2022/08/11 11:20:33;;;;;;;1.48;1.00;;;;;;;;;;5025841;28;20112;-76
2022/08/11 11:23:03;;;;;;;0.32;0.32;;;;;;;;;;5008924;28;20125;-77
2022/08/11 11:26:05;;;;;;;2.72;1.70;;;;;;;;;;5026815;28;20486;-75
2022/08/11 11:28:49;;;;;;;1.48;1.27;;;;;;;;;;5026567;28;20500;-75
2022/08/11 11:31:53;;;;;;;0.40;0.40;;;;;;;;;;5026291;28;20037;-77
2022/08/11 11:34:50;;;;;;;0.60;0.60;;;;;;;;;;4946219;29;20094;-76
2022/08/11 11:37:17;;;;;;;1.30;1.20;;;;;;;;;;4924975;29;20051;-74
2022/08/11 11:39:42;;;;;;;1.77;0.82;;;;;;;;;;5000445;28;20041;-75
2022/08/11 11:42:09;;;;;;;1.20;1.05;;;;;;;;;;5026683;28;20037;-76
2022/08/11 11:44:38;;;;;;;0.73;0.73;;;;;;;;;;5026669;28;20025;-76
2022/08/11 11:47:04;;;;;;;;;;;;;;;;;;5026615;28;20037;-76
2022/08/11 11:49:31;;;;;;;2.80;1.05;;;;;;;;;;5026992;28;19913;-76
2022/08/11 11:51:57;;;;;;;0.80;0.77;;;;;;;;;;5025906;28;20038;-75
2022/08/11 11:54:25;;;;;;;1.48;1.38;;;;;;;;;;5026652;28;20034;-75
2022/08/11 11:56:55;;;;;;;0.50;0.50;;;;;;;;;;5032855;28;20140;-75
2022/08/11 12:02:09;;;;;;;0.85;0.80;;;;;;;;;;5046548;28;20346;-77
2022/08/11 12:04:43;;;;;;;2.70;1.42;;;;;;;;;;5045912;28;20658;-76
2022/08/11 12:09:54;;;;;;;1.83;1.15;;;;;;;;;;5052294;28;20547;-77
2022/08/11 12:15:05;;;;;;;6.25;0.82;;;;;;;;;;5044560;28;20035;-77
2022/08/11 12:17:31;;;;;;;0.75;0.75;;;;;;;;;;5045280;28;20024;-76
2022/08/11 12:19:57;;;;;;;3.75;1.67;;;;;;;;;;5042526;28;20029;-77
2022/08/11 12:27:54;;;;;;;2.42;1.65;;;;;;;;;;5050123;28;20064;-76
2022/08/11 12:30:20;;;;;;;1.10;1.02;;;;;;;;;;5049786;28;20036;-76
2022/08/11 12:32:46;;;;;;;5.72;2.50;;;;;;;;;;5051440;28;20107;-77
2022/08/11 12:35:14;;;;;;;1.63;1.50;;;;;;;;;;5051310;28;20040;-76
2022/08/11 12:37:43;;;;;;;4.55;2.03;;;;;;;;;;5055450;28;20041;-76
2022/08/11 12:45:41;;;;;;;3.10;0.90;;;;;;;;;;5051869;28;20036;-77
2022/08/11 12:53:43;;;;;;;2.72;1.05;;;;;;;;;;5049452;28;20082;-75
2022/08/11 13:07:07;;;;;;;2.65;1.45;;;;;;;;;;5030344;28;20095;-77
2022/08/11 13:09:32;;;;;;;0.90;0.90;;;;;;;;;;5028915;28;20984;-76
2022/08/11 13:14:42;;;;;;;0.55;0.55;;;;;;;;;;5029819;28;20124;-75
2022/08/11 13:17:20;;;;;;;4.25;2.70;;;;;;;;;;5028746;28;20116;-75
2022/08/11 13:19:46;;;;;;;1.08;0.93;;;;;;;;;;5028873;28;20057;-76
2022/08/11 13:22:14;;;;;;;0.47;0.43;;;;;;;;;;5028796;28;20450;-74
2022/08/11 13:24:41;;;;;;;1.02;0.82;;;;;;;;;;5029290;28;20051;-75
2022/08/11 13:27:11;;;;;;;0.60;0.60;;;;;;;;;;5027223;28;20473;-75
2022/08/11 13:29:37;;;;;;;;;;;;;;;;;;5030616;28;20115;-74
2022/08/11 13:32:02;;;;;;;0.88;0.88;;;;;;;;;;5030892;28;19915;-75
2022/08/11 13:34:32;;;;;;;0.47;0.47;;;;;;;;;;5029510;28;20482;-75
2022/08/11 13:36:59;;;;;;;1.52;1.42;;;;;;;;;;5012589;28;20060;-75
2022/08/11 13:39:26;;;;;;;1.55;1.05;;;;;;;;;;5029730;28;20477;-77
2022/08/11 13:41:55;;;;;;;1.27;0.97;;;;;;;;;;5030460;28;20037;-76
2022/08/11 13:44:21;;;;;;;0.70;0.60;;;;;;;;;;5029622;28;20256;-73
2022/08/11 13:46:47;;;;;;;0.63;0.63;;;;;;;;;;5029516;28;20295;-76
2022/08/11 13:49:15;;;;;;;1.02;0.95;;;;;;;;;;5034021;28;20124;-76
2022/08/11 13:51:44;;;;;;;1.40;1.30;;;;;;;;;;5047569;28;20029;-75
2022/08/11 13:54:14;;;;;;;0.40;0.40;;;;;;;;;;5048275;28;20033;-76
2022/08/11 13:56:43;;;;;;;2.17;1.58;;;;;;;;;;5045976;28;20565;-76
2022/08/11 13:59:09;;;;;;;5.47;2.25;;;;;;;;;;5050129;28;20033;-76
2022/08/11 14:01:40;;;;;;;0.50;0.50;;;;;;;;;;5048452;28;20550;-77
2022/08/11 14:04:12;;;;;;;0.90;0.90;;;;;;;;;;5048350;28;20028;-75
2022/08/11 14:06:40;;;;;;;2.53;1.73;;;;;;;;;;5048647;28;20519;-76
2022/08/11 14:09:09;;;;;;;6.22;2.22;;;;;;;;;;5032070;28;20024;-75
2022/08/11 14:14:21;;;;;;;0.75;0.75;;;;;;;;;;5046781;28;20044;-75
2022/08/11 14:16:47;;;;;;;0.60;0.60;;;;;;;;;;5049907;28;20029;-76
2022/08/11 14:19:13;;;;;;;0.60;0.57;;;;;;;;;;5049975;28;20464;-76
2022/08/11 14:24:25;;;;;;;3.25;1.67;;;;;;;;;;5050111;28;20047;-74
2022/08/11 14:26:51;;;;;;;1.42;1.00;;;;;;;;;;5048502;28;20033;-75
2022/08/11 14:29:19;;;;;;;0.50;0.50;;;;;;;;;;5049791;28;20060;-76
2022/08/11 14:31:49;;;;;;;0.45;0.45;;;;;;;;;;5047442;28;20039;-76
2022/08/11 14:34:17;;;;;;;1.30;1.20;;;;;;;;;;5048793;28;20428;-77
2022/08/11 14:36:44;;;;;;;1.42;1.05;;;;;;;;;;5048239;28;20070;-76
2022/08/11 14:39:17;;;;;;;1.33;1.00;;;;;;;;;;5049044;28;20028;-76
2022/08/11 14:47:16;;;;;;;0.80;0.80;;;;;;;;;;5049279;28;20041;-74
2022/08/11 14:49:42;;;;;;;0.93;0.80;;;;;;;;;;5049482;28;20060;-75
2022/08/11 14:52:09;;;;;;;0.50;0.50;;;;;;;;;;5048527;28;20119;-76
2022/08/11 14:57:20;;;;;;;1.50;1.20;;;;;;;;;;5049212;28;20412;-75
2022/08/11 14:59:47;;;;;;;1.08;0.90;;;;;;;;;;5049851;28;20040;-75
2022/08/11 15:04:58;;;;;;;0.50;0.50;;;;;;;;;;5048673;28;20061;-76
2022/08/11 15:07:29;;;;;;;2.00;1.60;;;;;;;;;;5047815;28;20425;-76
2022/08/11 15:10:07;;;;;;;1.65;1.35;;;;;;;;;;5047942;28;20017;-75
2022/08/11 15:12:33;;;;;;;1.77;1.52;;;;;;;;;;5047595;28;20032;-76
2022/08/11 15:17:54;;;;;;;5.68;1.95;;;;;;;;;;5049500;28;20150;-74
2022/08/11 15:25:55;;;;;;;1.92;1.20;;;;;;;;;;5049114;28;20033;-75
2022/08/11 15:48:06;;;;;;;0.73;0.65;;;;;;;;;;5049152;28;20044;-76
2022/08/11 15:50:33;;;;;;;2.13;1.20;;;;;;;;;;5047536;28;20029;-73
2022/08/11 15:53:01;;;;;;;0.40;0.40;;;;;;;;;;5048788;28;20084;-76
2022/08/11 15:55:28;;;;;;;1.73;1.23;;;;;;;;;;5037955;28;20057;-76
2022/08/11 16:06:11;;;;;;;0.40;0.40;;;;;;;;;;5042802;28;20045;-75
2022/08/11 16:08:39;;;;;;;1.93;1.23;;;;;;;;;;5050727;28;20143;-74
2022/08/11 16:11:05;;;;;;;1.10;0.93;;;;;;;;;;5051539;28;20044;-76
2022/08/11 16:16:14;;;;;;;2.88;1.63;;;;;;;;;;5052023;28;20124;-75
2022/08/11 16:18:42;;;;;;;2.25;1.95;;;;;;;;;;5051093;28;20029;-75
2022/08/11 16:21:08;;;;;;;;;;;;;;;;;;5050857;28;20052;-75
2022/08/11 16:23:36;;;;;;;1.13;0.90;;;;;;;;;;5050323;28;19908;-75
2022/08/11 16:26:02;;;;;;;1.80;1.38;;;;;;;;;;5048155;28;20042;-76
2022/08/11 16:28:33;;;;;;;1.45;1.30;;;;;;;;;;5048457;28;20086;-76
2022/08/11 16:31:00;;;;;;;3.42;0.82;;;;;;;;;;5048423;28;20033;-76
2022/08/11 16:33:26;;;;;;;0.38;0.38;;;;;;;;;;5046185;28;20056;-75
2022/08/11 16:38:38;;;;;;;1.05;0.95;;;;;;;;;;5049370;28;20068;-75
2022/08/11 16:41:08;;;;;;;0.93;0.80;;;;;;;;;;5049800;28;20040;-76
2022/08/11 16:49:09;;;;;;;1.33;0.75;;;;;;;;;;5051214;28;20029;-75
2022/08/11 16:51:35;;;;;;;0.57;0.57;;;;;;;;;;5051832;28;20064;-75
2022/08/11 16:54:02;;;;;;;0.93;0.70;;;;;;;;;;5054777;28;20276;-74
2022/08/11 16:56:33;;;;;;;1.80;1.50;;;;;;;;;;5037470;28;20043;-75
2022/08/11 16:59:15;;;;;;;4.35;1.50;;;;;;;;;;5052700;28;20491;-76
2022/08/11 17:01:42;;;;;;;1.08;1.08;;;;;;;;;;5051651;28;20039;-75
2022/08/11 17:13:10;;;;;;;1.50;0.75;;;;;;;;;;5050669;28;20068;-75
2022/08/11 17:18:39;;;;;;;1.45;1.10;;;;;;;;;;5049875;28;20041;-75
2022/08/11 17:21:06;;;;;;;0.88;0.88;;;;;;;;;;5049683;28;20033;-76
2022/08/11 17:23:49;;;;;;;2.33;1.58;;;;;;;;;;5050023;28;20029;-74
2022/08/11 17:26:19;;;;;;;0.40;0.40;;;;;;;;;;5048702;28;20046;-76
2022/08/11 17:28:50;;;;;;;3.00;1.15;;;;;;;;;;5049272;28;20036;-77
2022/08/11 17:36:45;;;;;;;0.50;0.50;;;;;;;;;;5051241;28;20048;-75
2022/08/11 17:39:12;;;;;;;0.65;0.63;;;;;;;;;;5050935;28;20261;-74
2022/08/11 17:49:52;;;;;;;0.30;0.30;;;;;;;;;;5048880;28;20033;-78
2022/08/11 18:00:31;;;;;;;0.20;0.20;;;;;;;;;;5051504;28;20031;-75
2022/08/11 18:05:44;;;;;;;0.90;0.57;;;;;;;;;;5048698;28;20033;-74
